Terminal Aerodrome Forecast
Issued by NWS

Current Version | Previous Version | Text Only | Print | Product List | Glossary Off
Versions: 1 2 3 4 5 6 7 8 9 10 11 12 13 14 15 16 17 18 19 20 21 22 23 24

837
FTUS41 KRLX 200855 AAA
TAFCKB
TAF AMD
KCKB 200855Z 2009/2106 21007KT P6SM BKN030
     FM201200 22008G15KT P6SM SCT030
     FM201800 23010G18KT P6SM BKN025
     FM210200 23006KT P6SM OVC015=

USA.gov is the U.S. government's official web portal to all federal, state and local government web resources and services.